Time;durP1;ratioP1;P1;durP2;ratioP2;P2;SDS_P1;SDS_P2;PMS_P1;PMS_P2;Temp;Humidity;BMP_temperature;BMP_pressure;BME280_temperature;BME280_humidity;BME280_pressure;Samples;Min_cycle;Max_cycle;Signal;HPM_P1;HPM_P2
2023/01/02 00:00:22;;;;;;;148.15;59.40;;;;;;;9.80;100.00;102151.50;5011031;28;20419;-75
2023/01/02 00:02:48;;;;;;;177.38;67.47;;;;;;;9.79;100.00;102144.63;5013744;28;20037;-75
2023/01/02 00:05:13;;;;;;;183.90;68.47;;;;;;;9.75;100.00;102145.75;5012119;28;20034;-74
2023/01/02 00:07:39;;;;;;;153.00;61.50;;;;;;;9.74;100.00;102141.50;5008865;28;20362;-75
2023/01/02 00:10:04;;;;;;;197.10;64.35;;;;;;;9.76;100.00;102137.03;5014126;28;20040;-75
2023/01/02 00:12:30;;;;;;;195.35;66.32;;;;;;;9.76;100.00;102139.63;5014514;28;20033;-75
2023/01/02 00:14:55;;;;;;;168.65;67.20;;;;;;;9.73;100.00;102136.38;5009768;28;20026;-75
2023/01/02 00:17:21;;;;;;;196.05;69.97;;;;;;;9.74;100.00;102135.44;5011038;28;20038;-75
2023/01/02 00:19:46;;;;;;;200.93;70.50;;;;;;;9.71;100.00;102130.44;5010495;28;20177;-75
2023/01/02 00:22:12;;;;;;;177.40;63.55;;;;;;;9.71;100.00;102138.25;5010223;28;20030;-75
2023/01/02 00:24:37;;;;;;;189.68;69.43;;;;;;;9.73;100.00;102133.78;5008739;28;20040;-75
2023/01/02 00:27:03;;;;;;;181.88;65.88;;;;;;;9.69;100.00;102127.94;5009741;28;20084;-75
2023/01/02 00:29:29;;;;;;;164.60;68.78;;;;;;;9.69;100.00;102133.13;5010540;28;20480;-74
2023/01/02 00:31:54;;;;;;;166.02;66.78;;;;;;;9.67;100.00;102127.19;5010017;28;20018;-74
2023/01/02 00:34:20;;;;;;;180.45;68.72;;;;;;;9.66;100.00;102117.72;5008741;28;20516;-75
2023/01/02 00:36:45;;;;;;;184.32;67.65;;;;;;;9.69;100.00;102132.31;5010207;28;20033;-75
2023/01/02 00:39:10;;;;;;;177.75;69.40;;;;;;;9.69;100.00;102130.53;5008145;28;20057;-75
2023/01/02 00:41:36;;;;;;;183.15;68.63;;;;;;;9.69;100.00;102127.09;5011282;28;20061;-75
2023/01/02 00:44:01;;;;;;;175.15;67.20;;;;;;;9.68;100.00;102130.63;5012697;28;20080;-75
2023/01/02 00:46:27;;;;;;;176.02;67.82;;;;;;;9.66;100.00;102130.72;5009454;28;20070;-75
2023/01/02 00:48:52;;;;;;;179.38;68.28;;;;;;;9.64;100.00;102124.78;5009560;28;20124;-74
2023/01/02 00:51:18;;;;;;;222.25;67.78;;;;;;;9.64;100.00;102120.41;5006458;28;20075;-74
2023/01/02 00:53:43;;;;;;;193.77;66.03;;;;;;;9.63;100.00;102117.91;5012834;28;20038;-75
2023/01/02 00:56:08;;;;;;;235.43;68.13;;;;;;;9.63;100.00;102108.34;5012823;28;20420;-74
2023/01/02 00:58:34;;;;;;;185.57;67.80;;;;;;;9.60;100.00;102113.75;5008461;28;20053;-75
2023/01/02 01:00:59;;;;;;;193.50;67.30;;;;;;;9.60;100.00;102111.13;5012481;28;20034;-76
2023/01/02 01:03:25;;;;;;;207.77;68.85;;;;;;;9.63;100.00;102112.72;5009191;28;20032;-75
2023/01/02 01:05:50;;;;;;;248.27;67.57;;;;;;;9.64;100.00;102103.97;5008944;28;20029;-75
2023/01/02 01:08:15;;;;;;;263.83;68.15;;;;;;;9.69;100.00;102106.28;5010363;28;20440;-75
2023/01/02 01:10:41;;;;;;;277.63;71.40;;;;;;;9.67;100.00;102101.16;5012521;28;20088;-75
2023/01/02 01:13:07;;;;;;;253.82;69.45;;;;;;;9.65;100.00;102101.28;5014636;28;20033;-75
2023/01/02 01:15:33;;;;;;;254.07;66.35;;;;;;;9.64;100.00;102094.41;5008182;28;20045;-75
2023/01/02 01:17:58;;;;;;;165.13;56.33;;;;;;;9.67;100.00;102105.53;5001439;28;20745;-75
2023/01/02 01:20:24;;;;;;;207.93;66.72;;;;;;;9.70;100.00;102089.72;4996897;28;20042;-75
2023/01/02 01:22:49;;;;;;;177.30;59.35;;;;;;;9.71;100.00;102100.03;4998979;28;20448;-75
2023/01/02 01:25:15;;;;;;;224.35;66.05;;;;;;;9.75;100.00;102095.47;4997591;28;20033;-75
2023/01/02 01:27:40;;;;;;;176.60;59.42;;;;;;;9.74;100.00;102099.84;4996507;28;21824;-75
2023/01/02 01:30:06;;;;;;;180.50;65.47;;;;;;;9.76;100.00;102099.75;5002312;28;20057;-75
2023/01/02 01:32:33;;;;;;;187.52;66.35;;;;;;;9.75;100.00;102092.88;4999773;28;20061;-75
2023/01/02 01:34:58;;;;;;;206.10;62.70;;;;;;;9.77;100.00;102102.25;4998379;28;20065;-75
2023/01/02 01:37:24;;;;;;;245.63;69.03;;;;;;;9.78;100.00;102095.28;4996940;28;20168;-75
2023/01/02 01:39:49;;;;;;;172.98;66.38;;;;;;;9.78;100.00;102095.28;5004097;28;20041;-75
2023/01/02 01:42:15;;;;;;;167.70;58.42;;;;;;;9.77;100.00;102098.81;5007951;28;20030;-75
2023/01/02 01:44:51;;;;;;;232.85;68.07;;;;;;;9.77;100.00;102099.66;5005104;28;20125;-74
2023/01/02 01:47:22;;;;;;;243.40;69.55;;;;;;;9.75;100.00;102090.28;5000400;28;20041;-74
2023/01/02 01:49:59;;;;;;;185.15;63.70;;;;;;;9.75;100.00;102095.47;5001176;28;20144;-75
2023/01/02 01:52:30;;;;;;;225.48;68.30;;;;;;;9.77;100.00;102088.41;5001949;28;20462;-75
2023/01/02 01:55:08;;;;;;;191.75;68.53;;;;;;;9.77;100.00;102089.22;5001311;28;20403;-75
2023/01/02 01:57:43;;;;;;;210.15;70.13;;;;;;;9.76;100.00;102089.34;4989693;28;20052;-74
2023/01/02 02:00:09;;;;;;;201.52;70.47;;;;;;;9.76;100.00;102084.97;5004284;28;20037;-75
2023/01/02 02:02:36;;;;;;;207.77;71.05;;;;;;;9.76;100.00;102086.72;5012696;28;20128;-75
2023/01/02 02:05:05;;;;;;;209.93;69.10;;;;;;;9.77;100.00;102088.41;5008881;28;20080;-75
2023/01/02 02:07:34;;;;;;;165.68;56.50;;;;;;;9.78;100.00;102085.69;5001713;28;20038;-75
2023/01/02 02:10:09;;;;;;;188.88;61.78;;;;;;;9.78;100.00;102084.88;5013194;28;20013;-75
2023/01/02 02:12:35;;;;;;;202.68;65.75;;;;;;;9.77;100.00;102076.22;5010664;28;20030;-75
2023/01/02 02:15:01;;;;;;;213.27;66.93;;;;;;;9.77;100.00;102073.63;5017107;28;20481;-75
2023/01/02 02:17:59;;;;;;;185.75;58.45;;;;;;;9.77;100.00;102078.00;5010184;28;20477;-75
2023/01/02 02:20:28;;;;;;;212.85;61.15;;;;;;;9.78;100.00;102074.44;5012227;28;20037;-75
2023/01/02 02:23:09;;;;;;;216.48;60.75;;;;;;;9.75;100.00;102067.69;5015855;28;20536;-75
2023/01/02 02:26:12;;;;;;;292.35;65.70;;;;;;;9.73;100.00;102076.53;5012898;28;20429;-75
2023/01/02 02:29:13;;;;;;;172.98;53.92;;;;;;;9.72;100.00;102067.03;5011425;28;20065;-75
2023/01/02 02:32:20;;;;;;;172.02;57.78;;;;;;;9.70;100.00;102061.09;5010548;28;20089;-75
2023/01/02 02:34:46;;;;;;;220.90;58.08;;;;;;;9.70;100.00;102068.91;5011987;28;20128;-75
2023/01/02 02:37:19;;;;;;;208.45;56.10;;;;;;;9.69;100.00;102070.69;5011540;28;20033;-75
2023/01/02 02:39:44;;;;;;;257.33;57.40;;;;;;;9.69;100.00;102064.63;5011121;28;20037;-74
2023/01/02 02:42:30;;;;;;;262.85;62.95;;;;;;;9.67;100.00;102066.50;5010640;28;20035;-75
2023/01/02 02:45:05;;;;;;;207.65;56.47;;;;;;;9.65;100.00;102064.00;5014546;28;20497;-74
2023/01/02 02:47:46;;;;;;;240.00;58.15;;;;;;;9.66;100.00;102060.47;5012634;28;20033;-74
2023/01/02 02:50:27;;;;;;;216.27;57.88;;;;;;;9.67;100.00;102069.09;5006174;28;20538;-75
2023/01/02 02:53:01;;;;;;;183.32;53.40;;;;;;;9.66;100.00;102060.47;5012207;28;20021;-75
2023/01/02 02:55:39;;;;;;;274.42;62.85;;;;;;;9.66;100.00;102060.47;5011750;28;20044;-75
2023/01/02 02:58:05;;;;;;;303.63;65.63;;;;;;;9.67;100.00;102059.53;5013860;28;20132;-75
2023/01/02 03:00:31;;;;;;;261.27;60.45;;;;;;;9.69;100.00;102064.63;5013941;28;20030;-75
2023/01/02 03:02:57;;;;;;;252.88;64.55;;;;;;;9.65;100.00;102059.63;5014851;28;20478;-75
2023/01/02 03:05:54;;;;;;;214.80;60.35;;;;;;;9.66;100.00;102065.66;5015958;28;20034;-75
2023/01/02 03:08:41;;;;;;;338.52;66.35;;;;;;;9.65;100.00;102061.41;5011391;28;20559;-75
2023/01/02 03:11:08;;;;;;;332.17;66.75;;;;;;;9.63;100.00;102056.28;5010778;28;20038;-74
2023/01/02 03:13:59;;;;;;;300.67;64.10;;;;;;;9.62;100.00;102054.63;5010572;28;20440;-74
2023/01/02 03:16:44;;;;;;;246.68;62.30;;;;;;;9.62;100.00;102053.78;5015534;28;20501;-75
2023/01/02 03:19:13;;;;;;;232.93;61.92;;;;;;;9.59;100.00;102052.22;5017209;28;20103;-74
2023/01/02 03:21:54;;;;;;;242.70;61.95;;;;;;;9.57;100.00;102045.44;5014633;28;20042;-75
2023/01/02 03:24:23;;;;;;;359.27;65.20;;;;;;;9.58;100.00;102037.53;5017391;28;20042;-74
2023/01/02 03:26:54;;;;;;;317.08;65.38;;;;;;;9.57;100.00;102041.06;5014709;28;20034;-74
2023/01/02 03:29:42;;;;;;;233.73;62.95;;;;;;;9.52;100.00;102045.75;5011188;28;20096;-75
2023/01/02 03:32:16;;;;;;;329.48;64.25;;;;;;;9.53;100.00;102038.78;5010043;28;20044;-74
2023/01/02 03:34:44;;;;;;;362.80;65.10;;;;;;;9.55;100.00;102035.13;5010597;28;20045;-74
2023/01/02 03:37:18;;;;;;;309.58;63.55;;;;;;;9.51;100.00;102025.84;5014907;28;20431;-74
2023/01/02 03:39:50;;;;;;;241.68;63.72;;;;;;;9.55;100.00;102036.91;5012139;28;20083;-74
2023/01/02 03:42:22;;;;;;;289.85;64.57;;;;;;;9.53;100.00;102029.19;5011160;28;20052;-74
2023/01/02 03:45:01;;;;;;;298.88;64.63;;;;;;;9.55;100.00;102031.69;5007836;28;20405;-75
2023/01/02 03:47:44;;;;;;;323.25;67.63;;;;;;;9.55;100.00;102031.69;5039170;28;20034;-74
2023/01/02 03:50:20;;;;;;;361.15;65.10;;;;;;;9.58;100.00;102028.91;5006954;28;20072;-74
2023/01/02 03:52:46;;;;;;;276.80;60.30;;;;;;;9.62;100.00;102035.56;5010257;28;20029;-74
2023/01/02 03:55:12;;;;;;;304.27;62.85;;;;;;;9.62;100.00;102019.97;5009917;28;20386;-75
2023/01/02 03:58:13;;;;;;;276.08;57.97;;;;;;;9.61;100.00;102032.13;5009847;28;20061;-74
2023/01/02 04:00:51;;;;;;;310.55;60.85;;;;;;;9.62;100.00;102022.56;5014426;28;20093;-74
2023/01/02 04:03:23;;;;;;;276.67;63.28;;;;;;;9.61;100.00;102026.94;5010223;28;20030;-74
2023/01/02 04:06:02;;;;;;;317.95;59.50;;;;;;;9.62;100.00;102026.00;5005380;28;20025;-74
2023/01/02 04:08:44;;;;;;;264.90;62.25;;;;;;;9.64;100.00;102025.91;5010023;28;20044;-74
2023/01/02 04:11:15;;;;;;;322.10;66.60;;;;;;;9.65;100.00;102027.56;5010966;28;20048;-75
2023/01/02 04:13:47;;;;;;;344.25;64.65;;;;;;;9.67;100.00;102024.88;5009057;28;20033;-75
2023/01/02 04:16:19;;;;;;;294.42;66.22;;;;;;;9.65;100.00;102027.56;5015331;28;20039;-75
2023/01/02 04:18:50;;;;;;;394.25;69.45;;;;;;;9.65;100.00;102027.56;5015193;28;20022;-74
2023/01/02 04:21:20;;;;;;;351.80;67.20;;;;;;;9.67;100.00;102032.66;5010799;28;20038;-74
2023/01/02 04:24:14;;;;;;;318.48;63.17;;;;;;;9.66;100.00;102029.22;5011547;28;20030;-75
2023/01/02 04:26:58;;;;;;;296.27;64.57;;;;;;;9.67;100.00;102024.88;5013049;28;20037;-75
2023/01/02 04:29:24;;;;;;;254.80;50.97;;;;;;;9.65;100.00;102033.59;5009974;28;20054;-74
2023/01/02 04:31:59;;;;;;;260.05;55.60;;;;;;;9.64;100.00;102029.34;5010487;28;20046;-74
2023/01/02 04:34:28;;;;;;;296.80;57.63;;;;;;;9.65;100.00;102032.78;5009990;28;20564;-75
2023/01/02 04:36:54;;;;;;;239.85;56.88;;;;;;;9.64;100.00;102031.09;5005162;28;20284;-74
2023/01/02 04:39:22;;;;;;;375.63;66.88;;;;;;;9.64;100.00;102034.53;5009724;28;20044;-74
2023/01/02 04:41:48;;;;;;;248.90;57.75;;;;;;;9.62;100.00;102038.19;5008804;28;20034;-75
2023/01/02 04:44:13;;;;;;;261.77;62.05;;;;;;;9.62;100.00;102033.81;5014056;28;20033;-74
2023/01/02 04:46:39;;;;;;;256.27;58.38;;;;;;;9.63;100.00;102040.69;5013829;28;20029;-74
2023/01/02 04:49:05;;;;;;;239.15;57.33;;;;;;;9.63;100.00;102043.28;5014762;28;20385;-74
2023/01/02 04:51:31;;;;;;;269.45;54.75;;;;;;;9.63;100.00;102039.84;5009629;28;20038;-75
2023/01/02 04:53:56;;;;;;;295.90;56.92;;;;;;;9.61;100.00;102042.53;5009919;28;20038;-75
2023/01/02 04:56:22;;;;;;;258.75;54.92;;;;;;;9.62;100.00;102044.22;5007730;28;20034;-75
2023/01/02 04:58:49;;;;;;;286.90;58.08;;;;;;;9.62;100.00;102044.22;5015000;28;20042;-75
2023/01/02 05:01:17;;;;;;;281.00;56.50;;;;;;;9.61;100.00;102042.53;5007145;28;20045;-75
2023/01/02 05:03:45;;;;;;;212.02;50.63;;;;;;;9.62;100.00;102045.97;5008965;28;20038;-75
2023/01/02 05:06:12;;;;;;;266.27;57.25;;;;;;;9.62;100.00;102052.03;5009812;28;20105;-75
2023/01/02 05:08:37;;;;;;;283.30;58.67;;;;;;;9.62;100.00;102046.81;5007489;28;20038;-75
2023/01/02 05:11:17;;;;;;;270.75;53.65;;;;;;;9.62;100.00;102046.81;5004395;28;20106;-75
2023/01/02 05:13:43;;;;;;;250.80;52.70;;;;;;;9.63;100.00;102045.88;5012731;28;20041;-75
2023/01/02 05:16:09;;;;;;;293.67;56.55;;;;;;;9.63;100.00;102043.28;5008432;28;20072;-75
2023/01/02 05:18:35;;;;;;;239.00;55.42;;;;;;;9.63;100.00;102051.09;5014205;28;20038;-75
2023/01/02 05:23:58;;;;;;;321.05;58.55;;;;;;;9.58;100.00;102055.75;5010538;28;20139;-75
2023/01/02 05:26:23;;;;;;;300.30;58.83;;;;;;;9.57;100.00;102048.88;5007597;28;20563;-74
2023/01/02 05:28:53;;;;;;;292.52;56.25;;;;;;;9.57;100.00;102051.47;5008826;28;20034;-74
2023/01/02 05:31:20;;;;;;;298.85;61.33;;;;;;;9.57;100.00;102051.47;5007997;28;20034;-74
2023/01/02 05:33:57;;;;;;;278.08;59.45;;;;;;;9.56;100.00;102057.63;5011531;28;20044;-74
2023/01/02 05:36:25;;;;;;;348.75;61.20;;;;;;;9.60;100.00;102048.69;5007302;28;20053;-74
2023/01/02 05:38:51;;;;;;;349.75;60.33;;;;;;;9.61;100.00;102058.16;5008543;28;20367;-74
2023/01/02 05:41:18;;;;;;;284.40;52.95;;;;;;;9.62;100.00;102065.03;5009828;28;20168;-74
2023/01/02 05:43:43;;;;;;;369.00;60.17;;;;;;;9.63;100.00;102064.09;5005664;28;20105;-74
2023/01/02 05:46:17;;;;;;;395.70;59.08;;;;;;;9.63;100.00;102068.47;5007834;28;20460;-74
2023/01/02 05:48:44;;;;;;;274.92;51.10;;;;;;;9.63;100.00;102071.91;5010722;28;20061;-74
2023/01/02 05:51:12;;;;;;;382.05;61.53;;;;;;;9.64;100.00;102064.94;5009320;28;20505;-74
2023/01/02 05:53:38;;;;;;;303.52;60.00;;;;;;;9.61;100.00;102060.75;5012123;28;20500;-74
2023/01/02 05:56:14;;;;;;;225.60;58.80;;;;;;;9.59;100.00;102062.63;5012137;28;21618;-74
2023/01/02 05:58:42;;;;;;;288.08;61.97;;;;;;;9.61;100.00;102068.56;5008581;28;20109;-74
2023/01/02 06:01:16;;;;;;;278.40;67.13;;;;;;;9.61;100.00;102073.78;4993193;28;20056;-74
2023/01/02 06:03:50;;;;;;;312.38;61.90;;;;;;;9.62;100.00;102070.25;4988638;28;20627;-74
2023/01/02 06:06:17;;;;;;;266.67;72.68;;;;;;;9.63;100.00;102074.50;5010006;28;20034;-73
2023/01/02 06:08:43;;;;;;;268.45;72.57;;;;;;;9.64;100.00;102077.94;5010110;28;20088;-73
2023/01/02 06:11:08;;;;;;;277.48;69.18;;;;;;;9.64;100.00;102078.78;5008077;28;20030;-73
2023/01/02 06:13:35;;;;;;;280.00;72.60;;;;;;;9.66;100.00;102078.69;5008918;28;20034;-73
2023/01/02 06:16:02;;;;;;;399.48;79.28;;;;;;;9.68;100.00;102087.22;5015203;28;20099;-72
2023/01/02 06:18:30;;;;;;;292.70;75.90;;;;;;;9.67;100.00;102079.50;5011320;28;20064;-72
2023/01/02 06:21:22;;;;;;;272.13;75.85;;;;;;;9.64;100.00;102078.78;5009127;28;20041;-72
2023/01/02 06:23:52;;;;;;;302.25;76.20;;;;;;;9.63;100.00;102079.72;5010707;28;20096;-72
2023/01/02 06:26:19;;;;;;;266.35;77.78;;;;;;;9.61;100.00;102086.78;5011175;28;20556;-72
2023/01/02 06:28:49;;;;;;;297.98;77.60;;;;;;;9.61;100.00;102086.78;5019110;28;20125;-72
2023/01/02 06:31:16;;;;;;;287.33;77.78;;;;;;;9.61;100.00;102092.00;5011172;28;20028;-72
2023/01/02 06:33:42;;;;;;;349.00;84.30;;;;;;;9.61;100.00;102084.19;5016874;28;20121;-72
2023/01/02 06:36:17;;;;;;;338.63;79.35;;;;;;;9.62;100.00;102096.25;5006663;28;20368;-71
2023/01/02 06:38:44;;;;;;;293.15;78.45;;;;;;;9.62;100.00;102095.44;5015766;28;20037;-72
2023/01/02 06:41:11;;;;;;;283.83;77.55;;;;;;;9.61;100.00;102104.16;5013554;28;20037;-72
2023/01/02 06:43:42;;;;;;;323.60;77.25;;;;;;;9.63;100.00;102102.31;5010932;28;20052;-72
2023/01/02 06:46:09;;;;;;;462.38;86.85;;;;;;;9.64;100.00;102102.19;5015859;28;20036;-72
2023/01/02 06:48:35;;;;;;;299.13;86.70;;;;;;;9.61;100.00;102102.41;5013538;28;20040;-71
2023/01/02 06:51:05;;;;;;;345.40;79.18;;;;;;;9.61;100.00;102106.75;5016090;28;20377;-72
2023/01/02 06:53:36;;;;;;;363.42;84.78;;;;;;;9.61;100.00;102107.59;5010516;28;20088;-72
2023/01/02 06:56:01;;;;;;;335.60;92.30;;;;;;;9.60;100.00;102108.53;5035487;28;20030;-71
2023/01/02 06:58:30;;;;;;;291.13;85.55;;;;;;;9.59;100.00;102108.63;5011954;28;20049;-72
2023/01/02 07:01:08;;;;;;;282.67;90.97;;;;;;;9.55;100.00;102110.59;5010402;28;20041;-72
2023/01/02 07:03:33;;;;;;;293.73;92.70;;;;;;;9.54;100.00;102113.28;5014807;28;20045;-72
2023/01/02 07:06:03;;;;;;;265.90;85.25;;;;;;;9.51;100.00;102114.31;5017170;28;20037;-72
2023/01/02 07:08:30;;;;;;;269.13;87.78;;;;;;;9.53;100.00;102114.22;5013471;28;20025;-72
2023/01/02 07:11:19;;;;;;;301.17;87.00;;;;;;;9.50;100.00;102115.25;5012520;28;20413;-72
2023/01/02 07:13:47;;;;;;;261.58;86.55;;;;;;;9.51;100.00;102124.72;5010654;28;20469;-72
2023/01/02 07:16:15;;;;;;;299.23;91.05;;;;;;;9.49;100.00;102125.75;5011209;28;20033;-72
2023/01/02 07:18:41;;;;;;;276.33;86.93;;;;;;;9.48;100.00;102124.91;5011855;28;20116;-72
2023/01/02 07:21:08;;;;;;;321.83;91.60;;;;;;;9.48;100.00;102122.31;5013463;28;20209;-72
2023/01/02 07:23:34;;;;;;;290.98;85.28;;;;;;;9.47;100.00;102127.63;5012199;28;20040;-72
2023/01/02 07:26:03;;;;;;;274.67;93.47;;;;;;;9.45;100.00;102130.31;5011513;28;20378;-72
2023/01/02 07:28:28;;;;;;;314.30;98.07;;;;;;;9.47;100.00;102138.88;5009609;28;20040;-72
2023/01/02 07:31:00;;;;;;;429.88;96.10;;;;;;;9.48;100.00;102135.31;5013185;28;20018;-72
2023/01/02 07:33:27;;;;;;;403.23;95.60;;;;;;;9.50;100.00;102137.84;5009317;28;20375;-72
2023/01/02 07:36:03;;;;;;;395.50;94.97;;;;;;;9.52;100.00;102135.97;5014190;28;20045;-72
2023/01/02 07:38:28;;;;;;;397.02;93.60;;;;;;;9.52;100.00;102136.81;5007370;28;20030;-72
2023/01/02 07:40:54;;;;;;;380.15;95.28;;;;;;;9.53;100.00;102141.06;5011349;28;20029;-72
2023/01/02 07:43:20;;;;;;;374.42;96.80;;;;;;;9.55;100.00;102140.97;5008469;28;20120;-72
2023/01/02 07:45:46;;;;;;;406.33;98.00;;;;;;;9.54;100.00;102144.50;5043985;28;20030;-72
2023/01/02 07:48:12;;;;;;;343.30;92.90;;;;;;;9.54;100.00;102140.16;5009858;28;20112;-72
2023/01/02 07:50:38;;;;;;;392.83;96.60;;;;;;;9.55;100.00;102144.41;5010391;28;20371;-72
2023/01/02 07:53:04;;;;;;;367.75;96.53;;;;;;;9.55;100.00;102140.97;5015342;28;20025;-73
2023/01/02 07:55:30;;;;;;;353.85;100.32;;;;;;;9.53;100.00;102142.84;5009012;28;20032;-73
2023/01/02 07:57:56;;;;;;;324.98;88.53;;;;;;;9.53;100.00;102146.28;5010304;28;20057;-73
2023/01/02 08:00:22;;;;;;;305.70;88.57;;;;;;;9.53;100.00;102148.88;5009863;28;20065;-72
2023/01/02 08:02:48;;;;;;;331.63;93.35;;;;;;;9.53;100.00;102150.66;5010430;28;20508;-73
2023/01/02 08:05:18;;;;;;;383.45;101.95;;;;;;;9.53;100.00;102148.88;5040699;28;20050;-72
2023/01/02 08:07:44;;;;;;;342.15;95.45;;;;;;;9.53;100.00;102148.88;5003228;28;20517;-73
2023/01/02 08:10:11;;;;;;;388.15;98.88;;;;;;;9.53;100.00;102148.88;5010247;28;20025;-73
2023/01/02 08:12:38;;;;;;;308.30;86.88;;;;;;;9.54;100.00;102147.13;5013086;28;20397;-72
2023/01/02 08:15:04;;;;;;;431.60;101.10;;;;;;;9.54;100.00;102153.16;5010779;28;20055;-72
2023/01/02 08:17:31;;;;;;;435.67;105.22;;;;;;;9.56;100.00;102146.09;5012250;28;20048;-72
2023/01/02 08:19:56;;;;;;;283.10;86.00;;;;;;;9.56;100.00;102153.06;5014940;28;20532;-72
2023/01/02 08:22:23;;;;;;;331.90;101.85;;;;;;;9.52;100.00;102152.41;5012830;28;20037;-72
2023/01/02 08:24:49;;;;;;;321.17;103.18;;;;;;;9.52;100.00;102152.41;5008638;28;20512;-73
2023/01/02 08:27:14;;;;;;;378.77;103.18;;;;;;;9.54;100.00;102155.75;5010587;28;20509;-73
2023/01/02 08:29:40;;;;;;;336.83;95.95;;;;;;;9.56;100.00;102148.69;5014339;28;20064;-73
2023/01/02 08:32:06;;;;;;;298.55;102.47;;;;;;;9.53;100.00;102148.88;5011238;28;20178;-73
2023/01/02 08:34:33;;;;;;;255.13;101.53;;;;;;;9.48;100.00;102155.31;5013074;28;20062;-73
2023/01/02 08:36:59;;;;;;;261.73;100.97;;;;;;;9.45;100.00;102161.53;5006775;28;20382;-72
2023/01/02 08:39:24;;;;;;;344.05;105.43;;;;;;;9.49;100.00;102160.41;5011491;28;20060;-73
2023/01/02 08:41:50;;;;;;;414.70;103.97;;;;;;;9.53;100.00;102161.06;5009676;28;20038;-73
2023/01/02 08:44:15;;;;;;;372.65;104.45;;;;;;;9.54;100.00;102150.56;5012357;28;20839;-73
2023/01/02 08:46:41;;;;;;;403.92;106.55;;;;;;;9.55;100.00;102165.22;5008923;28;20412;-72
2023/01/02 08:49:06;;;;;;;374.02;103.82;;;;;;;9.55;100.00;102162.63;5009416;28;20485;-72
2023/01/02 08:51:31;;;;;;;441.02;107.47;;;;;;;9.57;100.00;102165.97;5008640;28;20499;-72
2023/01/02 08:53:57;;;;;;;338.92;101.15;;;;;;;9.57;100.00;102165.13;5010143;28;20037;-73
2023/01/02 08:56:26;;;;;;;266.45;101.90;;;;;;;9.54;100.00;102180.94;5010452;28;20493;-72
2023/01/02 08:58:57;;;;;;;267.70;98.07;;;;;;;9.53;100.00;102174.91;5009320;28;20057;-72
2023/01/02 09:01:24;;;;;;;412.88;109.90;;;;;;;9.57;100.00;102178.16;5008843;28;20088;-71
2023/01/02 09:03:50;;;;;;;275.80;104.20;;;;;;;9.56;100.00;102181.69;5009199;28;20033;-72
2023/01/02 09:06:16;;;;;;;278.38;103.78;;;;;;;9.52;100.00;102173.22;5009367;28;20065;-72
2023/01/02 09:08:42;;;;;;;300.63;101.50;;;;;;;9.52;100.00;102181.03;5008025;28;20524;-71
2023/01/02 09:11:25;;;;;;;254.65;104.43;;;;;;;9.52;100.00;102180.19;5008704;28;20148;-72
2023/01/02 09:13:52;;;;;;;286.48;107.50;;;;;;;9.51;100.00;102194.16;5009964;28;20025;-72
2023/01/02 09:16:17;;;;;;;251.43;104.25;;;;;;;9.49;100.00;102193.41;5002503;28;20026;-72
2023/01/02 09:18:43;;;;;;;264.52;106.88;;;;;;;9.46;100.00;102198.78;5012429;28;20488;-73
2023/01/02 09:21:08;;;;;;;247.20;103.55;;;;;;;9.43;100.00;102199.84;5009552;28;20120;-72
2023/01/02 09:23:34;;;;;;;253.13;104.25;;;;;;;9.43;100.00;102199.84;5008813;28;20037;-72
2023/01/02 09:26:03;;;;;;;296.65;107.78;;;;;;;9.44;100.00;102201.53;5007374;28;20069;-72
2023/01/02 09:28:30;;;;;;;365.42;111.63;;;;;;;9.47;100.00;102196.09;5010883;28;20065;-72
2023/01/02 09:30:56;;;;;;;307.95;110.97;;;;;;;9.47;100.00;102190.91;5009621;28;20053;-72
2023/01/02 09:33:22;;;;;;;237.90;98.30;;;;;;;9.43;100.00;102193.81;5007004;28;20038;-72
2023/01/02 09:35:49;;;;;;;240.57;100.70;;;;;;;9.41;100.00;102196.50;5008966;28;20080;-72
2023/01/02 09:38:15;;;;;;;249.65;108.03;;;;;;;9.43;100.00;102192.03;5006805;28;20041;-72
2023/01/02 09:40:53;;;;;;;294.10;115.82;;;;;;;9.41;100.00;102193.91;5008080;28;20091;-72
2023/01/02 09:43:34;;;;;;;273.83;106.50;;;;;;;9.42;100.00;102185.16;5003384;28;20030;-71
2023/01/02 09:46:03;;;;;;;340.95;114.25;;;;;;;9.47;100.00;102185.69;5005810;28;20045;-72
2023/01/02 09:48:32;;;;;;;279.00;105.22;;;;;;;9.49;100.00;102181.22;4991143;28;20140;-71
2023/01/02 09:50:59;;;;;;;276.00;110.38;;;;;;;9.52;100.00;102178.44;5008441;28;20018;-72
2023/01/02 09:53:25;;;;;;;245.70;109.38;;;;;;;9.50;100.00;102175.09;5012394;28;20026;-72
2023/01/02 09:56:07;;;;;;;223.10;103.45;;;;;;;9.46;100.00;102176.22;5009097;28;20034;-72
2023/01/02 09:58:57;;;;;;;241.55;103.60;;;;;;;9.44;100.00;102170.31;5008226;28;20170;-72
2023/01/02 10:01:32;;;;;;;236.93;100.28;;;;;;;9.42;100.00;102164.34;5011385;28;20037;-72
2023/01/02 10:04:06;;;;;;;245.27;102.65;;;;;;;9.46;100.00;102160.59;5014025;28;20029;-72
2023/01/02 10:06:42;;;;;;;350.58;106.88;;;;;;;9.52;100.00;102157.63;5012636;28;20038;-72
2023/01/02 10:09:18;;;;;;;274.70;98.78;;;;;;;9.57;100.00;102160.78;5013091;28;20041;-76
2023/01/02 10:11:47;;;;;;;;;;;;;;;9.51;100.00;102155.94;5032578;28;20491;-73
2023/01/02 10:14:48;;;;;;;224.18;95.38;;;;;;;9.55;100.00;102157.44;5010128;28;19913;-73
2023/01/02 10:17:16;;;;;;;216.70;95.13;;;;;;;9.58;100.00;102151.19;5002821;28;20049;-74
2023/01/02 10:19:56;;;;;;;249.27;92.78;;;;;;;9.60;100.00;102152.78;5005855;28;20534;-74
2023/01/02 10:22:32;;;;;;;265.92;93.13;;;;;;;9.66;100.00;102141.13;4991026;28;20397;-74
2023/01/02 10:25:01;;;;;;;230.43;98.93;;;;;;;9.62;100.00;102143.09;5003805;28;20041;-74
2023/01/02 10:27:42;;;;;;;261.77;98.57;;;;;;;9.65;100.00;102134.25;5003188;28;20030;-73
2023/01/02 10:30:10;;;;;;;258.38;98.93;;;;;;;9.71;100.00;102138.25;5004464;28;20078;-74
2023/01/02 10:32:37;;;;;;;262.08;100.85;;;;;;;9.68;100.00;102128.88;5006942;28;20080;-73
2023/01/02 10:35:38;;;;;;;265.55;100.72;;;;;;;9.67;100.00;102132.41;5005316;28;20448;-73
2023/01/02 10:38:04;;;;;;;199.48;96.45;;;;;;;9.70;100.00;102133.97;4999575;28;20129;-73
2023/01/02 10:40:30;;;;;;;187.13;91.80;;;;;;;9.65;100.00;102127.28;5007994;28;20080;-73
2023/01/02 10:42:58;;;;;;;179.05;85.90;;;;;;;9.64;100.00;102125.63;5005865;28;20034;-73
2023/01/02 10:45:24;;;;;;;170.30;84.22;;;;;;;9.58;100.00;102125.19;5008855;28;20061;-73
2023/01/02 10:47:49;;;;;;;172.55;79.88;;;;;;;9.55;100.00;102114.97;5010152;28;20104;-73
2023/01/02 10:50:21;;;;;;;177.80;80.40;;;;;;;9.57;100.00;102119.13;4993658;28;20443;-71
2023/01/02 10:52:52;;;;;;;161.40;78.97;;;;;;;9.60;100.00;102108.53;5012535;28;20107;-73
2023/01/02 10:55:38;;;;;;;167.73;76.53;;;;;;;9.67;100.00;102110.75;5011426;28;20517;-71
2023/01/02 10:58:20;;;;;;;159.75;76.20;;;;;;;9.67;100.00;102100.34;5011986;28;20111;-73
2023/01/02 11:00:47;;;;;;;149.43;72.60;;;;;;;9.73;100.00;102102.53;5005701;28;20029;-73
2023/01/02 11:03:16;;;;;;;152.55;73.07;;;;;;;9.74;100.00;102088.59;5012077;28;20030;-73
2023/01/02 11:06:00;;;;;;;148.40;72.90;;;;;;;9.69;100.00;102086.28;5010098;28;20033;-73
2023/01/02 11:08:37;;;;;;;144.23;72.60;;;;;;;9.65;100.00;102087.41;5011383;28;20034;-73
2023/01/02 11:11:22;;;;;;;136.48;69.10;;;;;;;9.67;100.00;102082.94;5012016;28;20022;-73
2023/01/02 11:13:55;;;;;;;121.50;62.22;;;;;;;9.68;100.00;102078.59;5009623;28;20025;-73
2023/01/02 11:16:24;;;;;;;119.55;60.78;;;;;;;9.69;100.00;102080.25;5011105;28;20052;-73